Flight Track Log - Related Links

Times and Time Zones

All times are in EDT time to prevent confusion due to time zone crossing. See the N566UA flight status page for this flight to view local times or setup timezone preferences in your user account.

Time Position Orientation Groundspeed Altitude Reporting Facility
EDT Latitude Longitude Course Direction KTS MPH feet Rate Location/Type
Wed 09:36:49 PM 39.9167 -104.6833 323° Northwest 172 198 7,000  Level Denver TRACON
Wed 09:37:43 PM 39.9667 -104.7000 346° North 213 245 9,300 2,105 Climbing Denver TRACON
Wed 09:38:43 PM 40.0333 -104.7333 339° North 271 312 11,000 1,483 Climbing Denver TRACON
Wed 09:39:00 PM 40.0336 -104.3667 North  Level FlightAware Approximate
Wed 09:39:12 PM 40.0703 -104.7422 350° North 281 323 11,500  Level Denver Center
Wed 09:40:00 PM 40.1281 -104.4447 323° Northwest  Level FlightAware Approximate
Wed 09:40:13 PM 40.1658 -104.7883 340° North 338 389 13,700  Level Denver Center
Wed 09:41:00 PM 40.2211 -104.5323 327° Northwest  Level FlightAware Approximate
Wed 09:41:14 PM 40.2611 -104.8322 341° North 361 415 16,100  Level Denver Center
Wed 09:42:00 PM 40.3162 -104.6162 323° Northwest  Level FlightAware Approximate
Wed 09:42:16 PM 40.3600 -104.8808 339° North 375 432 18,500  Level Denver Center
Wed 09:43:17 PM 40.4664 -104.9275 342° North 399 459 20,600 2,000 Climbing Denver Center
Wed 09:44:19 PM 40.5861 -104.9897 338° Northwest 426 490 22,600 1,805 Climbing Denver Center
Wed 09:45:20 PM 40.7039 -105.0400 342° North 437 503 24,300 1,475 Climbing Denver Center
Wed 09:46:21 PM 40.8156 -105.1231 331° Northwest 453 521 25,600 1,279 Climbing Denver Center
Wed 09:47:22 PM 40.9172 -105.2400 319° Northwest 477 549 26,900 1,574 Climbing Denver Center
Wed 09:48:23 PM 41.0156 -105.3508 320° Northwest 487 560 28,800 1,512 Climbing Denver Center
Wed 09:49:25 PM 41.1319 -105.4853 319° Northwest 494 568 30,000 1,122 Climbing Denver Center
Wed 09:50:26 PM 41.2314 -105.5989 319° Northwest 493 567 31,100 1,623 Climbing Denver Center
Wed 09:51:27 PM 41.3261 -105.7128 318° Northwest 483 556 33,300 1,805 Climbing Denver Center
Wed 09:52:29 PM 41.4078 -105.8697 305° West 464 534 34,800 1,415 Climbing Denver Center
Wed 09:53:30 PM 41.4717 -106.0075 302° West 459 528 36,200 1,377 Climbing Denver Center
Wed 09:54:31 PM 41.5453 -106.1658 302° West 450 518 37,600 885 Climbing Denver Center
Wed 09:55:32 PM 41.6094 -106.3025 302° West 451 519 38,000 195 Climbing Denver Center
Wed 09:56:34 PM 41.6739 -106.4406 302° West 456 525 38,000  Level Denver Center
Wed 09:57:35 PM 41.7436 -106.5908 302° West 452 520 38,000  Level Denver Center
Wed 09:58:36 PM 41.8158 -106.7519 301° West 453 521 38,000  Level Denver Center
Wed 09:59:38 PM 41.8783 -106.8875 302° West 449 517 38,000  Level Denver Center
Wed 10:00:39 PM 41.9403 -107.0261 301° West 451 519 38,000  Level Denver Center
Wed 10:01:40 PM 42.0125 -107.1869 301° West 451 519 38,000  Level Denver Center
Wed 10:02:41 PM 42.0764 -107.3247 302° West 453 521 38,000  Level Denver Center
Wed 10:03:43 PM 42.1450 -107.4844 300° West 445 512 38,000  Level Denver Center
Wed 10:04:44 PM 42.1961 -107.6303 295° West 450 518 38,000  Level Denver Center
Wed 10:05:34 PM 42.2344 -107.7550 293° West 452 520 38,000  Level Salt Lake Center
Wed 10:06:36 PM 42.2856 -107.9278 292° West 447 514 38,000  Level Salt Lake Center
Wed 10:07:37 PM 42.3319 -108.0769 293° West 451 519 38,000  Level Salt Lake Center
Wed 10:08:38 PM 42.3783 -108.2261 293° West 452 520 38,000  Level Salt Lake Center
Wed 10:09:39 PM 42.4308 -108.4000 292° West 448 516 38,000  Level Salt Lake Center
Wed 10:10:40 PM 42.4764 -108.5494 292° West 451 519 38,000  Level Salt Lake Center
Wed 10:11:42 PM 42.5289 -108.7236 292° West 450 518 38,000  Level Salt Lake Center
Wed 10:12:43 PM 42.5744 -108.8744 292° West 451 519 38,000  Level Salt Lake Center
Wed 10:13:44 PM 42.6183 -109.0239 292° West 449 517 38,000  Level Salt Lake Center
Wed 10:14:45 PM 42.6689 -109.1975 292° West 445 512 38,000  Level Salt Lake Center
Wed 10:15:47 PM 42.7128 -109.3489 292° West 449 517 38,000  Level Salt Lake Center
Wed 10:16:48 PM 42.7642 -109.5225 292° West 447 514 38,000  Level Salt Lake Center
Wed 10:17:49 PM 42.8075 -109.6742 291° West 449 517 38,000  Level Salt Lake Center
Wed 10:18:50 PM 42.8508 -109.8247 291° West 448 516 38,000  Level Salt Lake Center
Wed 10:19:52 PM 42.9008 -110.0019 291° West 450 518 38,000  Level Salt Lake Center
Wed 10:20:53 PM 42.9444 -110.1536 291° West 449 517 38,000  Level Salt Lake Center
Wed 10:21:54 PM 42.9939 -110.3317 291° West 448 516 38,000  Level Salt Lake Center
Wed 10:22:56 PM 43.0375 -110.4864 291° West 454 522 38,000  Level Salt Lake Center
Wed 10:23:57 PM 43.0817 -110.6364 292° West 447 514 38,000  Level Salt Lake Center
Wed 10:24:58 PM 43.1308 -110.8139 291° West 447 514 38,000  Level Salt Lake Center
Wed 10:26:00 PM 43.1733 -110.9661 291° West 446 513 38,000  Level Salt Lake Center
Wed 10:27:01 PM 43.2222 -111.1464 290° West 450 518 38,000  Level Salt Lake Center
Wed 10:28:02 PM 43.2633 -111.2989 290° West 445 512 38,000  Level Salt Lake Center
Wed 10:29:04 PM 43.3044 -111.4519 290° West 446 513 38,000  Level Salt Lake Center
Wed 10:30:05 PM 43.3514 -111.6278 290° West 439 505 38,000  Level Salt Lake Center
Wed 10:31:07 PM 43.3917 -111.7797 290° West 441 507 38,000  Level Salt Lake Center
Wed 10:32:08 PM 43.4314 -111.9314 290° West 440 506 38,000  Level Salt Lake Center
Wed 10:33:09 PM 43.4797 -112.1081 291° West 441 507 38,000  Level Salt Lake Center
Wed 10:34:11 PM 43.5189 -112.2592 290° West 439 505 38,000  Level Salt Lake Center
Wed 10:35:12 PM 43.5633 -112.4347 289° West 435 501 38,000  Level Salt Lake Center
Wed 10:36:13 PM 43.6019 -112.5842 290° West 433 498 38,000  Level Salt Lake Center
Wed 10:37:15 PM 43.6400 -112.7333 289° West 430 495 38,000  Level Salt Lake Center
Wed 10:38:16 PM 43.6850 -112.9133 289° West 440 506 38,000  Level Salt Lake Center
Wed 10:39:18 PM 43.7242 -113.0653 290° West 438 504 38,000  Level Salt Lake Center
Wed 10:40:19 PM 43.7692 -113.2419 289° West 437 503 38,000  Level Salt Lake Center
Wed 10:41:20 PM 43.8072 -113.3961 289° West 440 506 38,000  Level Salt Lake Center
Wed 10:42:22 PM 43.8436 -113.5489 288° West 439 505 38,000  Level Salt Lake Center
Wed 10:43:23 PM 43.8881 -113.7269 289° West 434 499 38,000  Level Salt Lake Center
Wed 10:44:25 PM 43.9233 -113.8764 288° West 426 490 38,000  Level Salt Lake Center
Wed 10:45:26 PM 43.9639 -114.0419 289° West 428 493 38,000  Level Salt Lake Center
Wed 10:46:27 PM 44.0017 -114.1914 289° West 428 493 38,000  Level Salt Lake Center
Wed 10:47:29 PM 44.0428 -114.3678 288° West 430 495 38,000  Level Salt Lake Center
Wed 10:48:30 PM 44.0789 -114.5183 289° West 430 495 38,000  Level Salt Lake Center
Wed 10:49:31 PM 44.1158 -114.6692 289° West 431 496 38,000  Level Salt Lake Center
Wed 10:50:33 PM 44.1567 -114.8461 288° West 430 495 38,000  Level Salt Lake Center
Wed 10:51:34 PM 44.1911 -114.9953 288° West 425 489 38,000  Level Salt Lake Center
Wed 10:52:35 PM 44.2306 -115.1697 288° West 423 487 38,000  Level Salt Lake Center
Wed 10:53:37 PM 44.2661 -115.3192 288° West 423 487 38,000  Level Salt Lake Center
Wed 10:54:38 PM 44.2997 -115.4700 287° West 424 488 38,000  Level Salt Lake Center
Wed 10:55:39 PM 44.3386 -115.6453 287° West 423 487 38,000  Level Salt Lake Center
Wed 10:56:41 PM 44.3717 -115.7939 287° West 421 484 38,000  Level Salt Lake Center
Wed 10:57:42 PM 44.4106 -115.9681 287° West 420 483 38,000  Level Salt Lake Center
Wed 10:58:43 PM 44.4408 -116.1089 287° West 418 481 38,000  Level Salt Lake Center
Wed 10:59:45 PM 44.4772 -116.2775 287° West 417 480 38,000  Level Salt Lake Center
Wed 11:00:46 PM 44.5094 -116.4272 287° West 419 482 38,000  Level Salt Lake Center
Wed 11:01:47 PM 44.5469 -116.6017 287° West 419 482 38,000  Level Salt Lake Center
Wed 11:02:48 PM 44.5794 -116.7519 287° West 419 482 38,000  Level Salt Lake Center
Wed 11:03:50 PM 44.6111 -116.9019 287° West 420 483 38,000  Level Salt Lake Center
Wed 11:04:51 PM 44.6481 -117.0764 287° West 417 480 38,000  Level Salt Lake Center
Wed 11:05:52 PM 44.6797 -117.2258 287° West 417 480 38,000  Level Salt Lake Center
Wed 11:06:54 PM 44.7167 -117.4017 287° West 420 483 38,000  Level Salt Lake Center
Wed 11:07:55 PM 44.7481 -117.5517 286° West 418 481 38,000  Level Salt Lake Center
Wed 11:08:56 PM 44.7789 -117.7017 286° West 418 481 38,000  Level Salt Lake Center
Wed 11:09:57 PM 44.8136 -117.8783 286° West 419 482 38,000  Level Salt Lake Center
Wed 11:10:59 PM 44.8428 -118.0286 285° West 416 479 38,000  Level Salt Lake Center
Wed 11:12:00 PM 44.8719 -118.1714 286° West 420 483 38,000  Level Salt Lake Center
Wed 11:13:01 PM 44.9089 -118.3589 286° West 417 480 38,000  Level Salt Lake Center
Wed 11:14:02 PM 44.9403 -118.5164 286° West 419 482 38,000  Level Salt Lake Center
Wed 11:15:06 PM 44.9697 -118.6733 285° West 417 480 38,000  Level Seattle Center
Wed 11:16:06 PM 45.0008 -118.8306 286° West 417 480 38,000  Level Seattle Center
Wed 11:17:07 PM 45.0314 -118.9872 285° West 416 479 38,000  Level Seattle Center
Wed 11:18:08 PM 45.0608 -119.1433 285° West 414 476 38,000  Level Seattle Center
Wed 11:19:08 PM 45.0897 -119.3022 284° West 419 482 38,000  Level Seattle Center
Wed 11:20:09 PM 45.1194 -119.4600 285° West 419 482 38,000  Level Seattle Center
Wed 11:21:10 PM 45.1483 -119.6161 285° West 415 478 38,000  Level Seattle Center
Wed 11:22:11 PM 45.1822 -119.8008 285° West 410 472 38,000  Level Seattle Center
Wed 11:23:11 PM 45.2092 -119.9544 284° West 409 471 38,000 -50 Level Seattle Center
Wed 11:24:12 PM 45.2369 -120.1083 284° West 410 472 37,900 -1,180 Descending Seattle Center
Wed 11:25:13 PM 45.2636 -120.2617 284° West 406 467 35,600 -2,705 Descending Seattle Center
Wed 11:26:14 PM 45.2928 -120.4200 285° West 416 479 32,400 -2,777 Descending Seattle Center
Wed 11:27:14 PM 45.3194 -120.5783 284° West 416 479 30,000 -2,380 Descending Seattle Center
Wed 11:28:15 PM 45.3453 -120.7306 284° West 405 466 27,600 -2,508 Descending Seattle Center
Wed 11:29:16 PM 45.3700 -120.8789 283° West 393 452 24,900 -2,262 Descending Seattle Center
Wed 11:30:17 PM 45.3975 -121.0308 285° West 396 456 23,000 -2,231 Descending Seattle Center
Wed 11:31:17 PM 45.4217 -121.1814 283° West 393 452 20,400 -2,587 Descending Seattle Center
Wed 11:32:06 PM 45.4428 -121.3267 282° West 386 444 18,300 -2,308 Descending Seattle Center
Wed 11:32:48 PM 45.4567 -121.4228 282° West 361 415 16,900 -2,055 Descending Seattle Center
Wed 11:33:19 PM 45.4617 -121.4972 275° West 368 423 15,800 -1,891 Descending Seattle Center
Wed 11:34:20 PM 45.4789 -121.6292 281° West 345 397 14,000 -1,846 Descending Seattle Center
Wed 11:34:37 PM 45.4847 -121.6675 282° West 294 338 13,400 -1,800 Descending Seattle Center
Wed 11:35:20 PM 45.4936 -121.7386 280° West 295 339 12,200 -1,770 Descending Seattle Center
Wed 11:35:38 PM 45.4961 -121.7739 276° West 267 307 11,600 -1,574 Descending Seattle Center
Wed 11:36:21 PM 45.5061 -121.8461 281° West 278 320 10,600 -1,500 Descending Seattle Center
Wed 11:37:22 PM 45.5083 -121.9489 272° West 271 312 9,000 -1,574 Descending Seattle Center
Wed 11:38:23 PM 45.5089 -122.0514 270° West 263 303 7,400 -1,475 Descending Seattle Center
Wed 11:39:24 PM 45.5119 -122.1556 272° West 264 304 6,000 -1,289 Descending Seattle Center
Wed 11:40:24 PM 45.5111 -122.2567 269° West 261 300 4,800 -1,339 Descending Seattle Center
Wed 11:41:25 PM 45.5128 -122.3561 271° West 255 293 3,300 -1,230 Descending Seattle Center
Wed 11:42:26 PM 45.5292 -122.4264 288° West 204 235 2,300 -984 Descending Seattle Center

Login

Don't have an account? Register now (free) for customized features, flight alerts, and more!